Briarcliff, Texas
Current Conditions -  °F | °C
As of 10:55 AM on Saturday 25 Oct 2014 (Local Time) from KRYW Reporting Station
Clear Clear  
Wind Chill: 74°   Ceiling: Unl
Heat Index: 74°   Visibility: 10mi
Dew Point: 58°   Wind: 7mph
Humidity: 57%   Direction: 230°SW
Pressure: 30.21"   Gusts: NA
Location:  30.3864°N, 98.0483°W
Report Text: KRYW 251555Z AUTO 23006KT 10SM CLR 24/15 A3021 RMK AO2 T02360145
Loading
Personal Weather Stations






























Interactive Weather Map
Tropical Storm Tracking
New forecast layout! Learn more

10-Day Weather Forecast

Advertisements
Track Severe Weather on mobile